Hamburg, Pennsylvania
Current Conditions -  °F | °C
As of 12:54 AM on Monday 22 Dec 2014 (Local Time) from KRDG Reporting Station
Clear Clear  
Wind Chill: 23°   Ceiling: Unl
Heat Index: 23°   Visibility: 7mi
Dew Point: 19°   Wind: 3mph
Humidity: 85%   Direction: 340°NNW
Pressure: 30.31"   Gusts: NA
Location:  40.56°N, 75.98°W
Report Text: KRDG 220554Z AUTO 34003KT 7SM CLR M05/M07 A3031 RMK AO2 SLP274 T10501072 11011 21056 58005
Loading
Personal Weather Stations






























Interactive Weather Map New forecast layout! Learn more

10-Day Weather Forecast

Advertisements
Track Severe Weather on mobile